Time;durP1;ratioP1;P1;durP2;ratioP2;P2;SDS_P1;SDS_P2;PMS_P1;PMS_P2;Temp;Humidity;BMP_temperature;BMP_pressure;BME280_temperature;BME280_humidity;BME280_pressure;Samples;Min_cycle;Max_cycle;Signal;HPM_P1;HPM_P2
2021/12/10 05:01:28;;;;;;;9.70;4.43;;;1.10;99.90;;;;;;5507448;23;20510;-71
2021/12/10 05:03:55;;;;;;;10.13;4.67;;;1.10;99.90;;;;;;4978334;28;20472;-71
2021/12/10 05:06:22;;;;;;;6.97;4.60;;;1.10;99.90;;;;;;4978449;28;20463;-69
2021/12/10 05:08:49;;;;;;;10.07;4.73;;;1.10;99.90;;;;;;4978300;28;20471;-69
2021/12/10 05:11:16;;;;;;;9.53;3.97;;;1.10;99.90;;;;;;4978596;28;20475;-69
2021/12/10 05:13:47;;;;;;;7.07;5.00;;;1.20;99.90;;;;;;4978793;28;20451;-70
2021/12/10 05:16:15;;;;;;;5.47;3.87;;;1.20;99.90;;;;;;4978268;28;20456;-71
2021/12/10 05:18:48;;;;;;;6.03;4.30;;;1.30;99.90;;;;;;4978187;28;20451;-70
2021/12/10 05:21:15;;;;;;;10.67;5.33;;;1.30;99.90;;;;;;4977867;28;20562;-70
2021/12/10 05:23:42;;;;;;;7.17;4.93;;;1.30;99.90;;;;;;4978265;28;20479;-70
2021/12/10 05:26:09;;;;;;;7.37;4.50;;;1.20;99.90;;;;;;4978109;28;20455;-70
2021/12/10 05:28:37;;;;;;;11.57;5.27;;;1.20;99.90;;;;;;4978741;28;20459;-71
2021/12/10 05:31:04;;;;;;;5.93;4.70;;;1.20;99.90;;;;;;4978573;28;20479;-70
2021/12/10 05:33:31;;;;;;;7.00;4.90;;;1.20;99.90;;;;;;4977877;28;21045;-69
2021/12/10 05:36:01;;;;;;;6.20;5.13;;;1.20;99.90;;;;;;4979071;28;20455;-72
2021/12/10 05:38:28;;;;;;;9.13;5.23;;;1.20;99.90;;;;;;4979454;28;20530;-70
2021/12/10 05:40:56;;;;;;;16.40;5.23;;;1.10;99.90;;;;;;4979080;28;20486;-70
2021/12/10 05:43:23;;;;;;;6.60;5.53;;;1.10;99.90;;;;;;4976842;28;21032;-70
2021/12/10 05:45:51;;;;;;;9.40;6.20;;;1.10;99.90;;;;;;4984105;28;20462;-71
2021/12/10 05:48:19;;;;;;;14.80;4.70;;;1.10;99.90;;;;;;4993378;28;20462;-71
2021/12/10 05:50:47;;;;;;;9.23;5.47;;;1.10;99.90;;;;;;4994435;28;20478;-71
2021/12/10 05:53:15;;;;;;;7.03;4.97;;;1.10;99.90;;;;;;4982549;28;20450;-71
2021/12/10 05:55:43;;;;;;;8.30;4.80;;;1.10;99.90;;;;;;4980855;28;20458;-70
2021/12/10 05:58:11;;;;;;;6.23;5.17;;;1.10;99.90;;;;;;4985212;28;20989;-70
2021/12/10 06:00:40;;;;;;;5.17;4.53;;;1.10;99.90;;;;;;4982418;28;21060;-71
2021/12/10 06:03:08;;;;;;;9.17;5.73;;;1.10;99.90;;;;;;4978877;28;20490;-71
2021/12/10 06:05:35;;;;;;;9.43;5.50;;;1.00;99.90;;;;;;4978489;28;20946;-70
2021/12/10 06:08:04;;;;;;;9.03;5.20;;;1.10;99.90;;;;;;4979414;28;20463;-69
2021/12/10 06:10:33;;;;;;;9.00;5.80;;;1.00;99.90;;;;;;4982180;28;20474;-71
2021/12/10 06:12:59;;;;;;;7.53;5.67;;;1.00;99.90;;;;;;4989615;28;20461;-70
2021/12/10 06:15:27;;;;;;;7.90;5.93;;;1.00;99.90;;;;;;4978272;28;20459;-70
2021/12/10 06:17:54;;;;;;;7.17;5.70;;;1.00;99.90;;;;;;4977936;28;20463;-70
2021/12/10 06:20:24;;;;;;;12.33;5.97;;;1.00;99.90;;;;;;4983712;28;20454;-71
2021/12/10 06:22:53;;;;;;;12.87;6.50;;;1.00;99.90;;;;;;4986529;28;20495;-70
2021/12/10 06:25:20;;;;;;;11.33;6.40;;;1.00;99.90;;;;;;4985283;28;20942;-71
2021/12/10 06:27:48;;;;;;;7.73;6.17;;;1.10;99.90;;;;;;4980475;28;20946;-70
2021/12/10 06:30:17;;;;;;;8.80;6.13;;;1.10;99.90;;;;;;4981110;28;20465;-70
2021/12/10 06:32:46;;;;;;;9.80;6.83;;;1.10;99.90;;;;;;4982768;28;20458;-70
2021/12/10 06:35:14;;;;;;;7.00;5.87;;;1.10;99.90;;;;;;4994720;28;20451;-70
2021/12/10 06:37:42;;;;;;;9.00;6.10;;;1.10;99.90;;;;;;4995943;28;20462;-70
2021/12/10 06:40:12;;;;;;;8.93;6.07;;;1.30;99.90;;;;;;4999106;28;20458;-68
2021/12/10 06:42:39;;;;;;;13.13;7.40;;;1.50;99.90;;;;;;5000212;28;20416;-69
2021/12/10 06:45:13;;;;;;;8.20;6.50;;;1.70;99.90;;;;;;5000217;28;20462;-69
2021/12/10 06:47:44;;;;;;;16.60;6.57;;;2.30;99.90;;;;;;4999287;28;20439;-69
2021/12/10 06:50:11;;;;;;;12.13;7.20;;;2.70;99.90;;;;;;4998527;28;20436;-68
2021/12/10 06:52:38;;;;;;;6.03;5.47;;;3.20;99.90;;;;;;4996499;28;20454;-69
2021/12/10 06:55:05;;;;;;;5.90;5.30;;;3.60;99.90;;;;;;4997803;28;20451;-69
2021/12/10 06:57:34;;;;;;;8.83;5.60;;;3.80;99.90;;;;;;4998601;28;20458;-70
2021/12/10 07:00:01;;;;;;;8.90;5.97;;;3.80;99.90;;;;;;4999674;28;20530;-71
2021/12/10 07:02:29;;;;;;;10.70;7.10;;;3.70;99.90;;;;;;4990414;28;20479;-70
2021/12/10 07:04:56;;;;;;;9.67;7.40;;;3.40;99.90;;;;;;4984444;28;21017;-70
2021/12/10 07:07:23;;;;;;;9.33;7.17;;;3.10;99.90;;;;;;4984099;28;20470;-69
2021/12/10 07:09:50;;;;;;;8.03;7.00;;;2.80;99.90;;;;;;4982802;28;20459;-68
2021/12/10 07:12:18;;;;;;;11.00;7.70;;;2.60;99.90;;;;;;4981627;28;20847;-69
2021/12/10 07:14:45;;;;;;;10.40;7.67;;;2.30;99.90;;;;;;4988708;28;20518;-70
2021/12/10 07:17:12;;;;;;;10.50;7.17;;;2.10;99.90;;;;;;4981329;28;20459;-70
2021/12/10 07:19:42;;;;;;;7.90;6.80;;;1.90;99.90;;;;;;4981383;28;20551;-70
2021/12/10 07:22:09;;;;;;;9.30;7.17;;;2.20;99.90;;;;;;4980360;28;20482;-70
2021/12/10 07:24:35;;;;;;;11.37;6.40;;;2.80;99.90;;;;;;4980200;28;20475;-71
2021/12/10 07:27:03;;;;;;;11.70;8.27;;;3.20;99.90;;;;;;4980586;28;20451;-69
2021/12/10 07:29:29;;;;;;;8.43;7.53;;;3.10;99.90;;;;;;4981038;28;20459;-70
2021/12/10 07:31:56;;;;;;;9.33;8.20;;;3.00;99.90;;;;;;4979743;28;21001;-69
2021/12/10 07:34:23;;;;;;;11.67;9.00;;;2.80;99.90;;;;;;4979614;28;20462;-69
2021/12/10 07:36:51;;;;;;;11.30;9.30;;;2.60;99.90;;;;;;4980550;28;20462;-70
2021/12/10 07:39:18;;;;;;;12.27;9.40;;;2.50;99.90;;;;;;4980042;28;20838;-69
2021/12/10 07:41:45;;;;;;;10.87;9.20;;;2.50;99.90;;;;;;4979542;28;20835;-70
2021/12/10 07:44:12;;;;;;;15.80;9.07;;;2.70;99.90;;;;;;4979517;28;20541;-69
2021/12/10 07:46:40;;;;;;;10.50;8.43;;;2.80;99.90;;;;;;4980307;28;20466;-69
2021/12/10 07:49:14;;;;;;;11.80;7.80;;;2.90;99.90;;;;;;4979828;28;20455;-69
2021/12/10 07:51:44;;;;;;;9.90;8.73;;;3.30;99.90;;;;;;4979912;28;20475;-70
2021/12/10 07:54:12;;;;;;;9.73;8.10;;;3.50;99.90;;;;;;4979340;28;20502;-70
2021/12/10 07:56:39;;;;;;;11.87;9.47;;;3.70;99.90;;;;;;4979471;28;20459;-69
2021/12/10 07:59:06;;;;;;;12.13;9.43;;;3.70;99.90;;;;;;4978981;28;20462;-70
2021/12/10 08:01:33;;;;;;;10.27;9.07;;;3.30;99.90;;;;;;4993324;28;20482;-70
2021/12/10 08:04:02;;;;;;;10.43;8.70;;;3.10;99.90;;;;;;4982595;28;20483;-71
2021/12/10 08:06:31;;;;;;;13.57;8.93;;;2.80;99.90;;;;;;4979305;28;20462;-70
2021/12/10 08:08:58;;;;;;;10.17;9.07;;;2.70;99.90;;;;;;4981008;28;20459;-69
2021/12/10 08:11:26;;;;;;;13.07;8.30;;;2.60;99.90;;;;;;4982735;28;20547;-69
2021/12/10 08:13:53;;;;;;;11.43;9.63;;;2.40;99.90;;;;;;4979465;28;20443;-70
2021/12/10 08:16:23;;;;;;;15.87;10.57;;;2.30;99.90;;;;;;4979928;28;20439;-69
2021/12/10 08:18:50;;;;;;;10.50;8.70;;;2.30;99.90;;;;;;4981269;28;20451;-69
2021/12/10 08:21:18;;;;;;;12.53;8.13;;;2.30;99.90;;;;;;4979921;28;20478;-69
2021/12/10 08:23:45;;;;;;;10.47;9.00;;;2.30;99.90;;;;;;4979420;28;20569;-71
2021/12/10 08:26:13;;;;;;;11.43;9.10;;;2.40;99.90;;;;;;4980491;28;20955;-70
2021/12/10 08:28:41;;;;;;;14.10;8.13;;;2.40;99.90;;;;;;4981328;28;20459;-69
2021/12/10 08:31:08;;;;;;;12.80;9.50;;;2.40;99.90;;;;;;4981919;28;20535;-69
2021/12/10 08:33:35;;;;;;;12.30;9.00;;;2.40;99.90;;;;;;4979001;28;20788;-72
2021/12/10 08:36:05;;;;;;;10.30;8.40;;;2.40;99.90;;;;;;4978867;28;20459;-69
2021/12/10 08:38:33;;;;;;;11.23;8.37;;;2.30;99.90;;;;;;4978555;28;20644;-69
2021/12/10 08:41:04;;;;;;;13.17;8.90;;;2.30;99.90;;;;;;4977916;28;20942;-69
2021/12/10 08:43:32;;;;;;;17.67;10.40;;;2.30;99.90;;;;;;4978719;28;20467;-69
2021/12/10 08:46:02;;;;;;;15.47;9.10;;;2.20;99.90;;;;;;4993009;28;20463;-70
2021/12/10 08:48:30;;;;;;;11.20;10.00;;;2.20;99.90;;;;;;4994166;28;20458;-70
2021/12/10 08:51:01;;;;;;;13.17;9.77;;;2.40;99.90;;;;;;4990363;28;20471;-70
2021/12/10 08:53:28;;;;;;;10.60;9.50;;;2.50;99.90;;;;;;4990681;28;20489;-70
2021/12/10 08:55:57;;;;;;;11.23;7.80;;;2.60;99.90;;;;;;4993882;28;20452;-70
2021/12/10 08:58:24;;;;;;;12.70;9.60;;;2.70;99.90;;;;;;4996209;28;20898;-70
2021/12/10 09:00:55;;;;;;;18.17;9.63;;;2.80;99.90;;;;;;4985487;28;20842;-70
2021/12/10 09:03:24;;;;;;;11.00;8.13;;;2.90;99.90;;;;;;4979401;28;20439;-70
2021/12/10 09:05:51;;;;;;;15.60;9.90;;;2.90;99.90;;;;;;4979639;28;20455;-70
2021/12/10 09:08:18;;;;;;;13.07;9.40;;;2.90;99.90;;;;;;4979305;28;20459;-70
2021/12/10 09:10:48;;;;;;;13.70;9.47;;;2.90;99.90;;;;;;4977510;28;20479;-70
2021/12/10 09:13:17;;;;;;;10.70;9.60;;;2.90;99.90;;;;;;4984320;28;20444;-70
2021/12/10 09:15:46;;;;;;;13.43;10.17;;;3.00;99.90;;;;;;4985225;28;20455;-70
2021/12/10 09:18:14;;;;;;;14.40;9.07;;;3.00;99.90;;;;;;4977677;28;20838;-71
2021/12/10 09:20:46;;;;;;;13.77;10.10;;;2.90;99.90;;;;;;4977288;28;20982;-70
2021/12/10 09:23:18;;;;;;;11.57;8.77;;;2.80;99.90;;;;;;4977501;28;20562;-70
2021/12/10 09:25:45;;;;;;;12.47;9.13;;;2.80;99.90;;;;;;4977738;28;20446;-70
2021/12/10 09:28:12;;;;;;;15.93;10.40;;;2.80;99.90;;;;;;4977593;28;20463;-70
2021/12/10 09:30:45;;;;;;;14.00;9.67;;;2.80;99.90;;;;;;4976995;28;21001;-69
2021/12/10 09:33:12;;;;;;;10.90;9.47;;;2.80;99.90;;;;;;4977661;28;20439;-70
2021/12/10 09:35:39;;;;;;;14.40;9.03;;;2.80;99.90;;;;;;4977821;28;20458;-69
2021/12/10 09:38:08;;;;;;;10.57;8.80;;;2.80;99.90;;;;;;4978437;28;20819;-69
2021/12/10 09:40:46;;;;;;;10.20;9.03;;;2.70;99.90;;;;;;4976857;28;20477;-70
2021/12/10 09:43:13;;;;;;;11.30;10.10;;;2.80;99.90;;;;;;4976453;28;20915;-69
2021/12/10 09:45:43;;;;;;;14.30;9.37;;;2.70;99.90;;;;;;4976855;28;20486;-70
2021/12/10 09:48:14;;;;;;;15.60;8.70;;;2.80;99.90;;;;;;4979391;28;20443;-69
2021/12/10 09:50:46;;;;;;;13.77;9.90;;;2.80;99.90;;;;;;4979896;28;20475;-70
2021/12/10 09:53:16;;;;;;;14.07;10.50;;;2.80;99.90;;;;;;4982568;28;20446;-70
2021/12/10 09:55:45;;;;;;;13.67;9.70;;;2.80;99.90;;;;;;4990929;28;20451;-70
2021/12/10 09:58:12;;;;;;;16.63;10.80;;;2.90;99.90;;;;;;4977009;28;20587;-70
2021/12/10 10:00:45;;;;;;;14.10;9.43;;;3.00;99.90;;;;;;4976171;28;20489;-69
2021/12/10 10:03:18;;;;;;;10.10;8.80;;;3.10;99.90;;;;;;4980366;28;20478;-69
2021/12/10 10:05:45;;;;;;;12.80;10.73;;;3.10;99.90;;;;;;4980607;28;20499;-69
2021/12/10 10:08:17;;;;;;;16.13;9.47;;;3.20;99.90;;;;;;4986086;28;20465;-69
2021/12/10 10:10:50;;;;;;;12.13;8.63;;;3.20;99.90;;;;;;4987095;28;20474;-70
2021/12/10 10:13:19;;;;;;;14.97;10.10;;;3.20;99.90;;;;;;4980676;28;20443;-69
2021/12/10 10:15:48;;;;;;;13.47;9.23;;;3.30;99.90;;;;;;4980649;28;20461;-69
2021/12/10 10:18:18;;;;;;;11.13;9.43;;;3.20;99.90;;;;;;4980551;28;20462;-70
2021/12/10 10:20:50;;;;;;;9.37;7.73;;;3.20;99.90;;;;;;4980256;28;20478;-69
2021/12/10 10:23:18;;;;;;;9.87;7.63;;;3.20;99.90;;;;;;4980207;28;20915;-69
2021/12/10 10:25:49;;;;;;;9.10;6.47;;;3.30;99.90;;;;;;4979863;28;20483;-69
2021/12/10 10:28:17;;;;;;;6.63;5.87;;;3.30;99.90;;;;;;4979971;28;20531;-69
2021/12/10 10:30:53;;;;;;;8.60;7.70;;;3.40;99.90;;;;;;4980012;28;20555;-71
2021/12/10 10:33:20;;;;;;;7.30;6.17;;;3.50;99.90;;;;;;4988330;28;20423;-70
2021/12/10 10:35:51;;;;;;;7.10;6.27;;;3.60;99.90;;;;;;5001685;28;20437;-70
2021/12/10 10:38:19;;;;;;;8.60;7.40;;;3.50;99.90;;;;;;5002333;28;20424;-71
2021/12/10 10:40:49;;;;;;;7.57;6.50;;;3.60;99.90;;;;;;5001826;28;20467;-70
2021/12/10 10:43:16;;;;;;;8.33;5.67;;;3.70;99.90;;;;;;4985597;28;20789;-70
2021/12/10 10:45:44;;;;;;;7.10;5.50;;;3.70;99.90;;;;;;4980058;28;20489;-70
2021/12/10 10:48:13;;;;;;;6.87;5.50;;;3.60;99.90;;;;;;4979966;28;20459;-70
2021/12/10 10:50:47;;;;;;;8.60;5.77;;;3.60;99.90;;;;;;4980284;28;20475;-69
2021/12/10 10:53:17;;;;;;;9.67;5.60;;;3.60;99.90;;;;;;4986134;28;20454;-66
2021/12/10 10:55:52;;;;;;;12.40;7.23;;;3.60;99.90;;;;;;4987932;28;20443;-67
2021/12/10 10:58:21;;;;;;;7.70;5.00;;;3.70;99.90;;;;;;4983847;28;20438;-66
2021/12/10 11:00:58;;;;;;;5.13;4.60;;;3.60;99.90;;;;;;4988668;28;20486;-67
2021/12/10 11:03:36;;;;;;;5.77;4.43;;;3.60;99.90;;;;;;4981266;28;20443;-66
2021/12/10 11:06:06;;;;;;;7.33;5.23;;;3.60;99.90;;;;;;4979992;28;20554;-66
2021/12/10 11:08:35;;;;;;;5.10;3.93;;;3.70;99.90;;;;;;4979065;28;20462;-67
2021/12/10 11:11:15;;;;;;;4.10;3.70;;;3.70;99.90;;;;;;4979023;28;20482;-67
2021/12/10 11:13:44;;;;;;;8.07;3.73;;;3.70;99.90;;;;;;4979007;28;20439;-66
2021/12/10 11:16:13;;;;;;;4.70;4.10;;;3.80;99.90;;;;;;4979301;28;20955;-66
2021/12/10 11:18:48;;;;;;;4.33;3.67;;;3.90;99.90;;;;;;4979231;28;20490;-68
2021/12/10 11:21:17;;;;;;;4.23;3.83;;;4.00;99.90;;;;;;4979100;28;20478;-67
2021/12/10 11:23:44;;;;;;;5.23;4.50;;;4.10;99.90;;;;;;4978520;28;20970;-66
2021/12/10 11:26:12;;;;;;;5.57;4.30;;;4.20;99.90;;;;;;4978576;28;20482;-67
2021/12/10 11:28:42;;;;;;;8.57;4.40;;;4.20;99.90;;;;;;4979734;28;20518;-67
2021/12/10 11:31:12;;;;;;;3.70;3.37;;;4.30;99.90;;;;;;4980081;28;20475;-67
2021/12/10 11:33:42;;;;;;;6.27;4.53;;;4.40;99.90;;;;;;4979178;28;20455;-67
2021/12/10 11:36:11;;;;;;;6.43;4.63;;;4.40;99.90;;;;;;4979092;28;20431;-66
2021/12/10 11:38:39;;;;;;;5.80;4.00;;;4.50;99.90;;;;;;4980094;28;20459;-66
2021/12/10 11:41:08;;;;;;;4.90;4.33;;;4.50;99.90;;;;;;4978578;28;21006;-66
2021/12/10 11:43:56;;;;;;;9.43;4.97;;;4.50;99.90;;;;;;4979049;28;20459;-67
2021/12/10 11:46:47;;;;;;;5.73;4.10;;;4.40;99.90;;;;;;4978490;28;20471;-66
2021/12/10 11:49:21;;;;;;;7.70;4.17;;;4.40;99.90;;;;;;4978616;28;20444;-67
2021/12/10 11:51:51;;;;;;;4.30;3.90;;;4.30;99.90;;;;;;4978163;28;20477;-67
2021/12/10 11:54:22;;;;;;;5.80;3.87;;;4.20;99.90;;;;;;4979468;28;20451;-67
2021/12/10 11:56:52;;;;;;;10.27;3.93;;;4.20;99.90;;;;;;4982624;28;20451;-67
2021/12/10 11:59:24;;;;;;;4.27;3.50;;;4.10;99.90;;;;;;4979559;28;20459;-66
2021/12/10 12:01:55;;;;;;;4.00;3.40;;;4.10;99.90;;;;;;4977883;28;20510;-67
2021/12/10 12:04:27;;;;;;;6.00;2.93;;;4.10;99.90;;;;;;4978223;28;20439;-67
2021/12/10 12:07:30;;;;;;;3.73;2.90;;;4.00;99.90;;;;;;4979023;28;20447;-67
2021/12/10 12:10:02;;;;;;;1.90;1.50;;;4.00;99.90;;;;;;4918643;29;20434;-66
2021/12/10 12:12:36;;;;;;;2.37;1.77;;;4.00;99.90;;;;;;4968844;28;20566;-67
2021/12/10 12:15:16;;;;;;;2.30;1.40;;;3.80;99.90;;;;;;4978666;28;20431;-66
2021/12/10 12:17:45;;;;;;;2.07;1.20;;;3.90;99.90;;;;;;4978588;28;20435;-67
2021/12/10 12:20:38;;;;;;;1.50;1.40;;;3.90;99.90;;;;;;4977860;28;20985;-67
2021/12/10 12:25:56;;;;;;;1.50;1.40;;;3.80;99.90;;;;;;4977941;28;20889;-67
2021/12/10 12:28:24;;;;;;;1.37;1.27;;;3.70;99.90;;;;;;4978516;28;20462;-66
2021/12/10 12:31:04;;;;;;;2.33;1.00;;;3.70;99.90;;;;;;4979476;28;20501;-67
2021/12/10 12:33:49;;;;;;;5.13;1.60;;;3.50;99.90;;;;;;4979620;28;20446;-67
2021/12/10 12:36:17;;;;;;;1.77;1.67;;;3.40;99.90;;;;;;4981013;28;20435;-67
2021/12/10 12:38:47;;;;;;;2.50;1.80;;;3.00;99.90;;;;;;4983177;28;20447;-67
2021/12/10 12:41:18;;;;;;;2.27;1.90;;;2.80;99.90;;;;;;4981490;28;20491;-67
2021/12/10 12:43:47;;;;;;;1.70;1.60;;;2.70;99.90;;;;;;4983133;28;20450;-67
2021/12/10 12:46:16;;;;;;;3.23;2.43;;;2.50;99.90;;;;;;4981116;28;20490;-67
2021/12/10 12:48:59;;;;;;;2.10;2.00;;;2.60;99.90;;;;;;4983075;28;20458;-67
2021/12/10 12:51:26;;;;;;;2.20;1.90;;;2.60;99.90;;;;;;4980797;28;20502;-67
2021/12/10 12:53:55;;;;;;;3.40;1.90;;;2.50;99.90;;;;;;4980968;28;20462;-67
2021/12/10 12:56:27;;;;;;;2.30;2.10;;;2.50;99.90;;;;;;4980281;28;20471;-66
2021/12/10 12:58:58;;;;;;;2.50;2.30;;;2.40;99.90;;;;;;4988028;28;20448;-66
2021/12/10 13:01:34;;;;;;;2.93;2.23;;;2.40;99.90;;;;;;4990007;28;20487;-67
2021/12/10 13:04:06;;;;;;;2.77;2.00;;;2.40;99.90;;;;;;4994412;28;20442;-67
2021/12/10 13:06:38;;;;;;;2.47;2.27;;;2.40;99.90;;;;;;4989531;28;20463;-67
2021/12/10 13:09:08;;;;;;;3.30;3.00;;;2.30;99.90;;;;;;4989470;28;20440;-67
2021/12/10 13:11:49;;;;;;;2.30;2.10;;;2.30;99.90;;;;;;4988232;28;20471;-67
2021/12/10 13:14:20;;;;;;;4.00;2.20;;;2.30;99.90;;;;;;4984532;28;20439;-67
2021/12/10 13:16:51;;;;;;;3.63;2.53;;;2.20;99.90;;;;;;4986697;28;20527;-67
2021/12/10 13:19:20;;;;;;;2.70;2.50;;;2.10;99.90;;;;;;4990368;28;20450;-68
2021/12/10 13:21:52;;;;;;;2.77;2.57;;;2.20;99.90;;;;;;4993444;28;20502;-68
2021/12/10 13:24:19;;;;;;;2.73;2.50;;;2.20;99.90;;;;;;4993197;28;20504;-67
2021/12/10 13:26:46;;;;;;;2.43;2.13;;;2.30;99.90;;;;;;4992046;28;20479;-68
2021/12/10 13:29:13;;;;;;;2.93;2.33;;;2.40;99.90;;;;;;4991906;28;20451;-67
2021/12/10 13:31:40;;;;;;;10.03;2.40;;;2.50;99.90;;;;;;4995428;28;20455;-68
2021/12/10 13:34:09;;;;;;;2.87;2.63;;;2.50;99.90;;;;;;4992211;28;20451;-67
2021/12/10 13:36:37;;;;;;;2.60;2.33;;;2.50;99.90;;;;;;4982224;28;20458;-67
2021/12/10 13:39:05;;;;;;;3.03;2.70;;;2.60;99.90;;;;;;4982951;28;20474;-67
2021/12/10 13:41:33;;;;;;;2.73;2.33;;;2.70;99.90;;;;;;4981953;28;20479;-67
2021/12/10 13:44:08;;;;;;;3.23;2.50;;;2.70;99.90;;;;;;4982904;28;20527;-67
2021/12/10 13:46:48;;;;;;;2.90;2.67;;;2.80;99.90;;;;;;4992454;28;20478;-68
2021/12/10 13:49:18;;;;;;;4.30;3.10;;;2.80;99.90;;;;;;4995897;28;20471;-67
2021/12/10 13:51:49;;;;;;;6.33;2.80;;;2.90;99.90;;;;;;4997343;28;20978;-67
2021/12/10 13:54:22;;;;;;;2.77;2.50;;;3.00;99.90;;;;;;4996469;28;20438;-67
2021/12/10 13:56:52;;;;;;;3.50;3.20;;;3.00;99.90;;;;;;4993478;28;20428;-67
2021/12/10 13:59:23;;;;;;;4.33;3.03;;;2.90;99.90;;;;;;4998648;28;20446;-67
2021/12/10 14:01:52;;;;;;;4.33;3.10;;;2.90;99.90;;;;;;4997628;28;20554;-67
2021/12/10 14:04:22;;;;;;;6.80;3.07;;;2.90;99.90;;;;;;4997732;28;20455;-67
2021/12/10 14:06:51;;;;;;;4.47;2.97;;;3.00;99.90;;;;;;4996826;28;20471;-67
2021/12/10 14:09:31;;;;;;;3.67;2.80;;;2.90;99.90;;;;;;4997176;28;20445;-68
2021/12/10 14:12:18;;;;;;;3.90;3.20;;;3.00;99.90;;;;;;4998154;28;20476;-68
2021/12/10 14:14:48;;;;;;;7.73;2.93;;;3.00;99.90;;;;;;4987015;28;20478;-67
2021/12/10 14:17:25;;;;;;;5.10;2.90;;;3.00;99.90;;;;;;4989940;28;20459;-67
2021/12/10 14:19:54;;;;;;;3.03;2.80;;;2.90;99.90;;;;;;4987973;28;20439;-67
2021/12/10 14:22:37;;;;;;;2.47;2.27;;;2.90;99.90;;;;;;4985900;28;20474;-67
2021/12/10 14:25:14;;;;;;;3.30;2.93;;;2.90;99.90;;;;;;4984015;28;20435;-68
2021/12/10 14:27:52;;;;;;;4.57;3.00;;;2.90;99.90;;;;;;4986307;28;20439;-67
2021/12/10 14:30:23;;;;;;;5.40;3.27;;;2.90;99.90;;;;;;4985275;28;20470;-68
2021/12/10 14:33:18;;;;;;;4.30;3.20;;;2.90;99.90;;;;;;4984359;28;20447;-67
2021/12/10 14:35:54;;;;;;;3.10;2.90;;;3.00;99.90;;;;;;4970315;28;20443;-67
2021/12/10 14:38:31;;;;;;;4.67;3.90;;;3.00;99.90;;;;;;4987399;28;20451;-68
2021/12/10 14:41:02;;;;;;;4.90;3.63;;;3.00;99.90;;;;;;4994240;28;20475;-68
2021/12/10 14:43:36;;;;;;;4.67;3.47;;;3.00;99.90;;;;;;4985499;28;20450;-67
2021/12/10 14:46:16;;;;;;;3.83;3.53;;;3.00;99.90;;;;;;4990494;28;20538;-67
2021/12/10 14:49:19;;;;;;;5.57;3.93;;;3.10;99.90;;;;;;4991081;28;20439;-67
2021/12/10 14:52:19;;;;;;;3.70;3.40;;;3.10;99.90;;;;;;4988928;28;20911;-67
2021/12/10 14:55:02;;;;;;;6.23;4.40;;;3.10;99.90;;;;;;4990776;28;20446;-66
2021/12/10 14:57:49;;;;;;;7.30;4.57;;;3.10;99.90;;;;;;4986763;28;20838;-66
2021/12/10 15:00:36;;;;;;;4.83;3.90;;;3.10;99.90;;;;;;4987210;28;20442;-68
2021/12/10 15:03:07;;;;;;;8.90;3.87;;;3.10;99.90;;;;;;4983346;28;20439;-67
2021/12/10 15:05:37;;;;;;;4.13;3.73;;;3.10;99.90;;;;;;4992073;28;20474;-67
2021/12/10 15:08:09;;;;;;;4.60;4.20;;;3.10;99.90;;;;;;4987101;28;20442;-68
2021/12/10 15:10:42;;;;;;;4.40;4.00;;;3.10;99.90;;;;;;4980137;28;20486;-69
2021/12/10 15:13:24;;;;;;;5.03;4.17;;;3.10;99.90;;;;;;4979241;28;20443;-68
2021/12/10 15:16:10;;;;;;;4.23;3.80;;;3.10;99.90;;;;;;4980926;28;20439;-66
2021/12/10 15:18:47;;;;;;;4.60;4.20;;;3.10;99.90;;;;;;4981860;28;20451;-68
2021/12/10 15:21:20;;;;;;;4.20;3.73;;;3.10;99.90;;;;;;4981324;28;20478;-67
2021/12/10 15:24:10;;;;;;;4.43;4.03;;;3.10;99.90;;;;;;4987574;28;20439;-67
2021/12/10 15:26:44;;;;;;;4.40;3.90;;;3.10;99.90;;;;;;4990740;28;20504;-67
2021/12/10 15:29:21;;;;;;;5.77;4.30;;;3.10;99.90;;;;;;4991596;28;20447;-67
2021/12/10 15:31:55;;;;;;;4.63;4.20;;;3.20;99.90;;;;;;4986153;28;20475;-67
2021/12/10 15:34:22;;;;;;;4.40;4.00;;;3.20;99.90;;;;;;4981551;28;20494;-67
2021/12/10 15:36:52;;;;;;;4.10;3.70;;;3.20;99.90;;;;;;4980648;28;20451;-67
2021/12/10 15:39:20;;;;;;;4.40;3.50;;;3.30;99.90;;;;;;4980323;28;20509;-67
2021/12/10 15:41:48;;;;;;;4.43;4.03;;;3.40;99.90;;;;;;4979425;28;20468;-67
2021/12/10 15:44:15;;;;;;;4.73;3.70;;;3.30;99.90;;;;;;4979677;28;20458;-67
2021/12/10 15:46:46;;;;;;;11.67;5.53;;;3.40;99.90;;;;;;4982343;28;20483;-67
2021/12/10 15:49:16;;;;;;;5.17;3.23;;;3.40;99.90;;;;;;4983234;28;20498;-67
2021/12/10 15:51:47;;;;;;;3.83;3.53;;;3.40;99.90;;;;;;4980941;28;20498;-67
2021/12/10 15:54:16;;;;;;;5.00;4.27;;;3.50;99.90;;;;;;4979950;28;20886;-66
2021/12/10 15:56:48;;;;;;;5.63;4.47;;;3.50;99.90;;;;;;4979482;28;20455;-67
2021/12/10 15:59:17;;;;;;;4.90;4.30;;;3.50;99.90;;;;;;4979588;28;20455;-67
2021/12/10 16:01:46;;;;;;;4.43;4.10;;;3.60;99.90;;;;;;4979272;28;20490;-66
2021/12/10 16:04:17;;;;;;;3.93;3.53;;;3.60;99.90;;;;;;4979384;28;20466;-66
2021/12/10 16:06:44;;;;;;;4.97;3.63;;;3.70;99.90;;;;;;4980116;28;20841;-66
2021/12/10 16:09:14;;;;;;;4.67;4.10;;;3.70;99.90;;;;;;4978129;28;20466;-66
2021/12/10 16:11:42;;;;;;;3.83;3.53;;;3.80;99.90;;;;;;4978873;28;20577;-66
2021/12/10 16:14:11;;;;;;;7.00;3.40;;;3.80;99.90;;;;;;4980010;28;20482;-66
2021/12/10 16:16:41;;;;;;;3.57;3.27;;;3.80;99.90;;;;;;4978741;28;20961;-67
2021/12/10 16:19:10;;;;;;;4.90;3.30;;;3.70;99.90;;;;;;4979055;28;20868;-67
2021/12/10 16:21:41;;;;;;;3.73;3.20;;;3.80;99.90;;;;;;4979241;28;20986;-67
2021/12/10 16:24:11;;;;;;;4.33;3.70;;;3.80;99.90;;;;;;4978828;28;20454;-66
2021/12/10 16:26:42;;;;;;;10.83;6.93;;;3.90;99.90;;;;;;4979819;28;20483;-67
2021/12/10 16:29:12;;;;;;;10.30;6.10;;;3.90;99.90;;;;;;4979442;28;20436;-66
2021/12/10 16:31:41;;;;;;;4.43;4.00;;;4.00;99.90;;;;;;4979523;28;20486;-67
2021/12/10 16:34:13;;;;;;;3.83;3.40;;;4.00;99.90;;;;;;4978616;28;20460;-66
2021/12/10 16:36:41;;;;;;;3.50;3.20;;;4.00;99.90;;;;;;4979545;28;20435;-67
2021/12/10 16:39:09;;;;;;;3.00;2.80;;;4.10;99.90;;;;;;4979738;28;20462;-66
2021/12/10 16:41:40;;;;;;;3.30;3.10;;;4.10;99.90;;;;;;4978612;28;20486;-67
2021/12/10 16:44:13;;;;;;;3.40;3.17;;;4.10;99.90;;;;;;4978122;28;20439;-67
2021/12/10 16:46:44;;;;;;;2.30;2.20;;;4.20;99.90;;;;;;4978559;28;20467;-66
2021/12/10 16:49:15;;;;;;;2.67;2.47;;;4.20;99.90;;;;;;4979333;28;20440;-67
2021/12/10 16:51:45;;;;;;;2.93;2.63;;;4.20;99.90;;;;;;4978195;28;20479;-67
2021/12/10 16:54:14;;;;;;;3.20;3.00;;;4.30;99.90;;;;;;4978134;28;20451;-68
2021/12/10 16:56:44;;;;;;;4.77;3.67;;;4.30;99.90;;;;;;4978540;28;20818;-68
2021/12/10 16:59:15;;;;;;;5.57;4.00;;;4.30;99.90;;;;;;4978899;28;20439;-68
2021/12/10 17:01:47;;;;;;;3.07;2.87;;;4.30;99.90;;;;;;4979413;28;20494;-66
2021/12/10 17:04:17;;;;;;;5.17;3.43;;;4.30;99.90;;;;;;4977562;28;20448;-67
2021/12/10 17:06:48;;;;;;;3.50;3.20;;;4.30;99.90;;;;;;4988385;28;20467;-67
2021/12/10 17:09:16;;;;;;;3.40;3.13;;;4.40;99.90;;;;;;4987406;28;20442;-67
2021/12/10 17:11:46;;;;;;;3.57;3.37;;;4.40;99.90;;;;;;4976580;28;20510;-67
2021/12/10 17:14:17;;;;;;;3.73;3.43;;;4.40;99.90;;;;;;4977405;28;20439;-66
2021/12/10 17:16:48;;;;;;;3.80;3.50;;;4.50;99.90;;;;;;4978157;28;20929;-66
2021/12/10 17:19:21;;;;;;;3.90;3.53;;;4.50;99.90;;;;;;4979618;28;20793;-68
2021/12/10 17:21:54;;;;;;;3.97;3.67;;;4.50;99.90;;;;;;4978169;28;20474;-66
2021/12/10 17:24:23;;;;;;;4.00;3.70;;;4.50;99.90;;;;;;4978254;28;20895;-68
2021/12/10 17:26:57;;;;;;;4.60;4.20;;;4.50;99.90;;;;;;4977681;28;20486;-66
2021/12/10 17:29:31;;;;;;;3.77;3.47;;;4.50;99.90;;;;;;4978612;28;20490;-66
2021/12/10 17:32:01;;;;;;;3.23;2.90;;;4.60;99.90;;;;;;4989028;28;20475;-66
2021/12/10 17:34:32;;;;;;;4.53;3.23;;;4.60;99.90;;;;;;4984802;28;20447;-67
2021/12/10 17:37:06;;;;;;;3.40;3.10;;;4.60;99.90;;;;;;4979699;28;20436;-66
2021/12/10 17:39:38;;;;;;;3.60;3.00;;;4.60;99.90;;;;;;4978883;28;20445;-67
2021/12/10 17:42:10;;;;;;;3.73;2.90;;;4.60;99.90;;;;;;4978787;28;21005;-67
2021/12/10 17:44:41;;;;;;;3.43;3.20;;;4.60;99.90;;;;;;4980706;28;20450;-66
2021/12/10 17:47:13;;;;;;;2.97;2.77;;;4.60;99.90;;;;;;4978975;28;20468;-68
2021/12/10 17:49:44;;;;;;;3.00;2.63;;;4.60;99.90;;;;;;4978800;28;20443;-66
2021/12/10 17:52:16;;;;;;;2.30;2.20;;;4.60;99.90;;;;;;4976608;28;20508;-66
2021/12/10 17:54:45;;;;;;;2.67;2.47;;;4.60;99.90;;;;;;4979062;28;20443;-66
2021/12/10 17:57:15;;;;;;;2.93;2.77;;;4.60;99.90;;;;;;4977169;28;20454;-67
2021/12/10 17:59:45;;;;;;;2.40;2.20;;;4.60;99.90;;;;;;4978351;28;20444;-67
2021/12/10 18:02:15;;;;;;;2.57;2.40;;;4.60;99.90;;;;;;4977209;28;20490;-67
2021/12/10 18:04:44;;;;;;;2.30;2.20;;;4.70;99.90;;;;;;4977195;28;20454;-67
2021/12/10 18:07:13;;;;;;;3.13;2.93;;;4.70;99.90;;;;;;4976633;28;20475;-67
2021/12/10 18:09:45;;;;;;;2.77;2.57;;;4.80;99.90;;;;;;4976746;28;20466;-67
2021/12/10 18:12:16;;;;;;;2.23;2.13;;;4.80;99.90;;;;;;4976268;28;20486;-67
2021/12/10 18:14:47;;;;;;;2.70;2.53;;;4.90;99.90;;;;;;4978001;28;20538;-66